createdAt,value
2023-01-09T00:01:54.391Z,24.73
2023-01-09T00:04:56.804Z,27.13
2023-01-09T00:07:59.002Z,23.25
2023-01-09T00:11:01.636Z,26.02
2023-01-09T00:14:04.825Z,25.62
2023-01-09T00:17:07.345Z,28.73
2023-01-09T00:20:11.052Z,29.52
2023-01-09T00:23:13.563Z,31.35
2023-01-09T00:26:18.891Z,27.02
2023-01-09T00:29:21.485Z,29.48
2023-01-09T00:32:23.770Z,27.95
2023-01-09T00:35:28.598Z,28.02
2023-01-09T00:38:31.083Z,26.70
2023-01-09T00:41:46.045Z,26.02
2023-01-09T00:44:52.576Z,25.58
2023-01-09T00:47:59.409Z,29.35
2023-01-09T00:51:01.603Z,25.58
2023-01-09T00:54:04.630Z,25.95
2023-01-09T00:57:08.028Z,24.75
2023-01-09T01:00:11.274Z,26.35
2023-01-09T01:03:13.472Z,25.92
2023-01-09T01:06:34.817Z,27.83
2023-01-09T01:09:37.194Z,27.15
2023-01-09T01:12:40.484Z,24.80
2023-01-09T01:15:46.264Z,22.98
2023-01-09T01:18:48.918Z,27.55
2023-01-09T01:21:51.383Z,28.15
2023-01-09T01:24:53.838Z,25.85
2023-01-09T01:27:56.164Z,24.50
2023-01-09T01:30:58.782Z,27.87
2023-01-09T01:34:01.032Z,24.35
2023-01-09T01:37:03.463Z,23.73
2023-01-09T01:40:08.022Z,21.98
2023-01-09T01:43:12.659Z,20.30
2023-01-09T01:46:18.908Z,20.37
2023-01-09T01:49:21.792Z,25.27
2023-01-09T01:52:25.589Z,23.92
2023-01-09T01:55:28.111Z,20.65
2023-01-09T01:58:30.922Z,22.90
2023-01-09T02:01:34.237Z,22.10
2023-01-09T02:04:40.348Z,24.58
2023-01-09T02:07:42.882Z,24.37
2023-01-09T02:10:45.114Z,21.20
2023-01-09T02:13:48.392Z,23.92
2023-01-09T02:17:21.696Z,24.87
2023-01-09T02:20:40.383Z,19.75
2023-01-09T02:24:08.675Z,21.12
2023-01-09T02:27:43.353Z,22.92
2023-01-09T02:30:56.860Z,21.77
2023-01-09T02:34:04.471Z,17.77
2023-01-09T02:37:06.630Z,19.02
2023-01-09T02:40:18.008Z,22.40
2023-01-09T02:43:20.683Z,24.23
2023-01-09T02:46:23.310Z,18.98
2023-01-09T02:49:25.733Z,20.73
2023-01-09T02:52:45.210Z,16.37
2023-01-09T02:55:52.717Z,21.05
2023-01-09T02:59:07.318Z,22.92
2023-01-09T03:02:39.667Z,24.67
2023-01-09T03:05:42.144Z,21.05
2023-01-09T03:08:49.113Z,24.08
2023-01-09T03:12:00.055Z,17.75
2023-01-09T03:15:04.616Z,21.60
2023-01-09T03:18:10.488Z,20.73
2023-01-09T03:21:13.602Z,20.62
2023-01-09T03:24:16.273Z,19.80
2023-01-09T03:27:18.589Z,24.58
2023-01-09T03:30:21.153Z,20.05
2023-01-09T03:33:23.399Z,23.87
2023-01-09T03:36:26.064Z,20.85
2023-01-09T03:39:28.420Z,20.10
2023-01-09T03:42:39.403Z,21.70
2023-01-09T03:45:42.746Z,17.52
2023-01-09T03:48:45.273Z,23.48
2023-01-09T03:51:47.438Z,22.33
2023-01-09T03:54:49.876Z,22.77
2023-01-09T03:57:52.903Z,23.02
2023-01-09T04:01:03.977Z,17.40
2023-01-09T04:04:06.762Z,23.08
2023-01-09T04:07:08.945Z,18.37
2023-01-09T04:10:12.217Z,20.35
2023-01-09T04:13:14.711Z,21.73
2023-01-09T04:16:17.331Z,23.73
2023-01-09T04:19:19.578Z,20.95
2023-01-09T04:22:22.025Z,22.17
2023-01-09T04:25:24.164Z,21.58
2023-01-09T04:28:26.603Z,22.27
2023-01-09T04:31:28.758Z,21.75
2023-01-09T04:34:31.310Z,25.42
2023-01-09T04:37:33.554Z,19.77
2023-01-09T04:40:36.021Z,22.30
2023-01-09T04:43:38.688Z,22.48
2023-01-09T04:46:41.206Z,18.80
2023-01-09T04:49:43.486Z,18.58
2023-01-09T04:52:45.960Z,20.77
2023-01-09T04:55:48.192Z,20.55
2023-01-09T04:58:51.087Z,20.95
2023-01-09T05:01:54.744Z,25.35
2023-01-09T05:04:57.301Z,20.75
2023-01-09T05:07:59.520Z,23.15
2023-01-09T05:11:02.115Z,26.20
2023-01-09T05:14:04.277Z,21.15
2023-01-09T05:17:06.911Z,21.83
2023-01-09T05:20:09.596Z,26.77
2023-01-09T05:23:12.284Z,23.40
2023-01-09T05:26:14.491Z,25.27
2023-01-09T05:29:17.317Z,23.65
2023-01-09T05:32:19.737Z,25.77
2023-01-09T05:35:22.456Z,20.20
2023-01-09T05:38:24.700Z,24.05
2023-01-09T05:41:27.234Z,30.55
2023-01-09T05:44:29.480Z,20.58
2023-01-09T05:47:32.442Z,24.92
2023-01-09T05:50:34.712Z,22.87
2023-01-09T05:53:37.390Z,18.27
2023-01-09T05:56:39.643Z,20.85
2023-01-09T05:59:42.298Z,22.17
2023-01-09T06:02:44.713Z,27.87
2023-01-09T06:05:47.435Z,19.92
2023-01-09T06:08:49.872Z,26.23
2023-01-09T06:11:54.776Z,20.52
2023-01-09T06:14:59.185Z,20.05
2023-01-09T06:18:01.942Z,20.00
2023-01-09T06:21:05.532Z,20.20
2023-01-09T06:24:09.180Z,22.65
2023-01-09T06:27:14.062Z,19.50
2023-01-09T06:30:16.953Z,25.60
2023-01-09T06:33:20.558Z,20.40
2023-01-09T06:36:24.359Z,18.90
2023-01-09T06:39:28.798Z,21.90
2023-01-09T06:42:31.701Z,21.35
2023-01-09T06:45:34.205Z,21.55
2023-01-09T06:48:37.205Z,23.42
2023-01-09T06:51:40.093Z,24.98
2023-01-09T06:54:43.068Z,18.48
2023-01-09T06:57:45.827Z,25.92
2023-01-09T07:00:49.605Z,20.98
2023-01-09T07:03:52.086Z,18.37
2023-01-09T07:06:54.824Z,20.60
2023-01-09T07:09:57.079Z,18.73
2023-01-09T07:12:59.871Z,18.85
2023-01-09T07:16:03.389Z,18.00
2023-01-09T07:19:06.203Z,18.60
2023-01-09T07:22:08.559Z,20.88
2023-01-09T07:25:11.679Z,20.05
2023-01-09T07:28:14.248Z,19.17
2023-01-09T07:31:17.754Z,18.37
2023-01-09T07:34:21.409Z,26.48
2023-01-09T07:37:24.492Z,20.77
2023-01-09T07:40:27.277Z,23.83
2023-01-09T07:43:29.844Z,20.90
2023-01-09T07:46:32.126Z,18.15
2023-01-09T07:49:35.017Z,22.35
2023-01-09T07:52:37.232Z,22.95
2023-01-09T07:55:39.666Z,21.35
2023-01-09T07:58:42.264Z,22.25
2023-01-09T08:01:44.961Z,21.85
2023-01-09T08:04:47.836Z,18.23
2023-01-09T08:07:51.372Z,18.77
2023-01-09T08:10:54.060Z,21.25
2023-01-09T08:13:56.315Z,19.55
2023-01-09T08:16:59.349Z,20.35
2023-01-09T08:20:07.322Z,20.35
2023-01-09T08:23:09.823Z,20.87
2023-01-09T08:26:12.207Z,22.13
2023-01-09T08:29:14.854Z,22.35
2023-01-09T08:32:17.099Z,25.73
2023-01-09T08:35:21.826Z,22.75
2023-01-09T08:38:24.065Z,25.17
2023-01-09T08:41:45.279Z,50.35
2023-01-09T08:45:06.082Z,31.30
2023-01-09T08:48:08.615Z,23.45
2023-01-09T08:51:11.060Z,19.42
2023-01-09T08:54:13.754Z,26.75
2023-01-09T08:57:15.950Z,22.50
2023-01-09T09:00:20.395Z,22.17
2023-01-09T09:03:22.853Z,28.48
2023-01-09T09:06:25.345Z,25.70
2023-01-09T09:09:27.600Z,17.90
2023-01-09T09:12:30.054Z,23.42
2023-01-09T09:15:34.234Z,21.25
2023-01-09T09:18:36.936Z,20.55
2023-01-09T09:21:39.355Z,20.27
2023-01-09T09:24:42.034Z,23.48
2023-01-09T09:27:44.935Z,23.30
2023-01-09T09:30:47.806Z,23.35
2023-01-09T09:33:50.401Z,18.80
2023-01-09T09:36:54.331Z,22.17
2023-01-09T09:39:57.997Z,23.12
2023-01-09T09:44:01.663Z,23.70
2023-01-09T09:47:31.497Z,19.05
2023-01-09T09:57:05.728Z,23.45
2023-01-09T10:00:15.672Z,26.20
2023-01-09T10:03:34.145Z,23.25
2023-01-09T10:06:43.126Z,24.05
2023-01-09T10:12:59.908Z,23.42
2023-01-09T10:16:36.177Z,24.60
2023-01-09T10:20:18.901Z,22.10
2023-01-09T10:23:24.502Z,25.75
2023-01-09T10:26:36.794Z,28.75
2023-01-09T10:29:54.382Z,27.90
2023-01-09T10:33:02.713Z,23.98
2023-01-09T10:36:42.276Z,21.40
2023-01-09T10:39:47.726Z,21.17
2023-01-09T10:43:17.107Z,21.33
2023-01-09T10:46:44.231Z,22.67
2023-01-09T10:49:50.001Z,25.60
2023-01-09T10:52:56.070Z,22.40
2023-01-09T10:56:22.646Z,19.50
2023-01-09T10:59:25.496Z,22.52
2023-01-09T11:02:32.940Z,23.30
2023-01-09T11:05:36.731Z,23.90
2023-01-09T11:08:42.724Z,23.58
2023-01-09T11:11:45.414Z,30.92
2023-01-09T11:14:47.882Z,26.67
2023-01-09T11:17:51.792Z,23.27
2023-01-09T11:20:54.427Z,25.55
2023-01-09T11:23:57.368Z,30.17
2023-01-09T11:27:23.799Z,25.00
2023-01-09T11:30:27.959Z,29.25
2023-01-09T11:33:49.874Z,28.10
2023-01-09T11:36:54.261Z,23.55
2023-01-09T11:39:59.477Z,24.20
2023-01-09T11:43:12.912Z,25.80
2023-01-09T11:46:40.846Z,29.27
2023-01-09T11:49:43.225Z,24.33
2023-01-09T11:52:46.580Z,29.35
2023-01-09T11:56:03.676Z,27.62
2023-01-09T11:59:15.016Z,25.00
2023-01-09T12:02:23.310Z,25.83
2023-01-09T12:05:39.127Z,23.42
2023-01-09T12:08:53.738Z,23.85
2023-01-09T12:12:11.197Z,26.95
2023-01-09T12:15:58.024Z,28.10
2023-01-09T12:19:12.818Z,25.55
2023-01-09T12:22:34.740Z,23.55
2023-01-09T12:26:08.251Z,23.92
2023-01-09T12:29:44.712Z,26.15
2023-01-09T12:33:11.574Z,21.37
2023-01-09T12:36:17.834Z,30.40
2023-01-09T12:39:49.546Z,21.20
2023-01-09T12:43:20.801Z,26.02
2023-01-09T12:46:27.294Z,22.60
2023-01-09T12:49:32.476Z,23.30
2023-01-09T12:52:43.758Z,22.30
2023-01-09T12:56:06.756Z,19.65
2023-01-09T12:59:43.927Z,26.25
2023-01-09T13:02:51.689Z,24.90
2023-01-09T13:05:58.726Z,26.45
2023-01-09T13:09:27.638Z,25.55
2023-01-09T13:12:37.546Z,28.53
2023-01-09T13:15:43.643Z,26.05
2023-01-09T13:18:58.355Z,31.67
2023-01-09T13:22:01.215Z,23.85
2023-01-09T13:25:08.491Z,25.48
2023-01-09T13:28:16.744Z,24.17
2023-01-09T13:31:52.641Z,29.15
2023-01-09T13:34:57.704Z,25.92
2023-01-09T13:38:00.698Z,30.90
2023-01-09T13:41:33.636Z,22.40
2023-01-09T13:44:36.251Z,26.77
2023-01-09T13:47:38.604Z,27.98
2023-01-09T13:50:42.588Z,28.15
2023-01-09T13:53:46.408Z,27.95
2023-01-09T13:57:17.825Z,27.45
2023-01-09T14:00:19.919Z,28.23
2023-01-09T14:03:32.871Z,30.92
2023-01-09T14:06:35.768Z,28.40
2023-01-09T14:09:51.058Z,29.67
2023-01-09T14:12:55.848Z,29.08
2023-01-09T14:16:09.233Z,27.02
2023-01-09T14:19:14.532Z,23.25
2023-01-09T14:22:30.196Z,28.83
2023-01-09T14:25:32.822Z,26.60
2023-01-09T14:28:35.417Z,25.35
2023-01-09T14:31:37.842Z,26.85
2023-01-09T14:34:42.381Z,25.95
2023-01-09T14:38:00.396Z,32.25
2023-01-09T14:42:03.857Z,27.62
2023-01-09T14:45:13.956Z,29.23
2023-01-09T14:48:17.356Z,34.05
2023-01-09T14:51:22.773Z,26.92
2023-01-09T14:54:31.833Z,29.48
2023-01-09T14:57:34.797Z,40.45
2023-01-09T15:00:37.470Z,31.75
2023-01-09T15:03:59.169Z,28.30
2023-01-09T15:07:03.871Z,33.47
2023-01-09T15:10:08.099Z,34.42
2023-01-09T15:13:15.815Z,30.83
2023-01-09T15:16:24.562Z,36.55
2023-01-09T15:19:28.277Z,28.35
2023-01-09T15:22:31.970Z,32.22
2023-01-09T15:25:39.644Z,30.40
2023-01-09T15:28:43.836Z,35.78
2023-01-09T15:32:09.311Z,29.85
2023-01-09T15:35:14.195Z,30.37
2023-01-09T15:38:22.323Z,32.65
2023-01-09T15:41:45.701Z,31.75
2023-01-09T15:44:51.075Z,47.90
2023-01-09T15:47:54.604Z,28.35
2023-01-09T15:50:58.536Z,48.95
2023-01-09T15:54:01.223Z,27.45
2023-01-09T15:57:24.379Z,34.58
2023-01-09T16:00:41.536Z,33.15
2023-01-09T16:03:44.390Z,31.55
2023-01-09T16:06:50.078Z,27.15
2023-01-09T16:09:52.869Z,30.60
2023-01-09T16:12:55.428Z,29.40
2023-01-09T16:16:01.132Z,33.38
2023-01-09T16:19:03.658Z,31.02
2023-01-09T16:22:22.996Z,40.45
2023-01-09T16:25:32.191Z,29.37
2023-01-09T16:28:34.749Z,29.98
2023-01-09T16:31:37.069Z,30.17
2023-01-09T16:34:42.432Z,30.88
2023-01-09T16:37:44.833Z,32.67
2023-01-09T16:41:26.516Z,30.73
2023-01-09T16:44:28.761Z,37.58
2023-01-09T16:47:31.273Z,34.28
2023-01-09T16:50:33.537Z,33.40
2023-01-09T16:53:36.157Z,34.80
2023-01-09T16:56:40.289Z,32.13
2023-01-09T16:59:43.657Z,33.65
2023-01-09T17:02:46.070Z,35.75
2023-01-09T17:05:55.421Z,34.97
2023-01-09T17:12:00.367Z,33.65
2023-01-09T17:15:02.692Z,34.65
2023-01-09T17:18:06.727Z,37.20
2023-01-09T17:21:19.922Z,32.35
2023-01-09T17:24:41.154Z,30.80
2023-01-09T17:28:02.140Z,35.17
2023-01-09T17:31:08.680Z,32.17
2023-01-09T17:34:10.945Z,37.58
2023-01-09T17:37:15.710Z,34.40
2023-01-09T17:40:21.574Z,37.67
2023-01-09T17:43:24.507Z,35.85
2023-01-09T17:46:35.393Z,36.80
2023-01-09T17:49:38.909Z,36.42
2023-01-09T17:52:41.127Z,39.17
2023-01-09T17:55:43.663Z,42.20
2023-01-09T17:58:45.996Z,39.72
2023-01-09T18:01:48.785Z,36.63
2023-01-09T18:04:51.440Z,41.30
2023-01-09T18:07:53.836Z,41.03
2023-01-09T18:10:56.434Z,35.40
2023-01-09T18:13:58.754Z,41.40
2023-01-09T18:17:02.492Z,35.67
2023-01-09T18:20:05.831Z,37.20
2023-01-09T18:23:10.904Z,38.05
2023-01-09T18:26:20.197Z,44.50
2023-01-09T18:29:22.849Z,38.35
2023-01-09T18:32:25.114Z,35.13
2023-01-09T18:35:28.527Z,37.03
2023-01-09T18:38:30.862Z,36.53
2023-01-09T18:41:33.591Z,33.95
2023-01-09T18:44:35.892Z,35.55
2023-01-09T18:47:38.465Z,38.08
2023-01-09T18:50:40.830Z,33.75
2023-01-09T18:53:43.332Z,37.13
2023-01-09T18:56:45.543Z,34.70
2023-01-09T18:59:48.137Z,40.38
2023-01-09T19:02:50.396Z,42.00
2023-01-09T19:05:53.018Z,41.83
2023-01-09T19:08:56.202Z,36.17
2023-01-09T19:11:58.794Z,33.90
2023-01-09T19:15:01.035Z,41.70
2023-01-09T19:18:03.797Z,33.25
2023-01-09T19:21:18.109Z,42.75
2023-01-09T19:24:21.222Z,36.88
2023-01-09T19:27:23.478Z,37.58
2023-01-09T19:30:26.571Z,41.78
2023-01-09T19:33:28.735Z,43.17
2023-01-09T19:36:31.403Z,38.75
2023-01-09T19:39:33.731Z,42.00
2023-01-09T19:42:36.280Z,47.53
2023-01-09T19:45:39.069Z,39.58
2023-01-09T19:48:44.927Z,41.85
2023-01-09T19:51:47.669Z,34.85
2023-01-09T19:54:50.161Z,32.90
2023-01-09T19:57:52.423Z,28.55
2023-01-09T20:00:54.983Z,26.58
2023-01-09T20:04:02.847Z,26.65
2023-01-09T20:07:05.229Z,30.67
2023-01-09T20:10:08.269Z,28.20
2023-01-09T20:13:10.489Z,25.08
2023-01-09T20:16:21.438Z,22.83
2023-01-09T20:19:23.924Z,28.15
2023-01-09T20:22:26.560Z,20.05
2023-01-09T20:25:28.861Z,22.60
2023-01-09T20:28:31.407Z,19.77
2023-01-09T20:31:33.766Z,24.85
2023-01-09T20:34:36.398Z,20.08
2023-01-09T20:37:40.015Z,18.40
2023-01-09T20:40:43.955Z,19.62
2023-01-09T20:43:46.575Z,21.98
2023-01-09T20:46:49.454Z,23.58
2023-01-09T20:49:51.746Z,23.75
2023-01-09T20:52:54.379Z,18.85
2023-01-09T20:56:05.777Z,18.08
2023-01-09T20:59:12.875Z,21.08
2023-01-09T21:02:15.089Z,18.15
2023-01-09T21:05:17.635Z,21.25
2023-01-09T21:08:20.157Z,23.48
2023-01-09T21:11:22.821Z,20.55
2023-01-09T21:14:25.014Z,22.27
2023-01-09T21:17:35.475Z,20.00
2023-01-09T21:20:37.662Z,20.85
2023-01-09T21:23:51.953Z,19.48
2023-01-09T21:26:54.311Z,20.55
2023-01-09T21:29:56.813Z,21.85
2023-01-09T21:32:59.040Z,21.52
2023-01-09T21:36:05.050Z,20.12
2023-01-09T21:39:08.426Z,22.65
2023-01-09T21:42:29.751Z,20.10
2023-01-09T21:45:50.584Z,21.15
2023-01-09T21:48:53.252Z,18.70
2023-01-09T21:51:55.904Z,16.60
2023-01-09T21:54:58.396Z,19.27
2023-01-09T21:58:04.186Z,17.77
2023-01-09T22:01:06.733Z,20.83
2023-01-09T22:04:11.599Z,17.10
2023-01-09T22:07:13.877Z,24.95
2023-01-09T22:10:16.887Z,20.62
2023-01-09T22:13:20.421Z,22.83
2023-01-09T22:16:27.171Z,21.52
2023-01-09T22:19:29.553Z,17.05
2023-01-09T22:22:32.008Z,19.95
2023-01-09T22:25:36.911Z,20.58
2023-01-09T22:28:40.866Z,20.50
2023-01-09T22:31:43.356Z,19.20
2023-01-09T22:34:45.958Z,16.73
2023-01-09T22:37:48.134Z,16.62
2023-01-09T22:40:50.580Z,18.17
2023-01-09T22:43:53.008Z,16.20
2023-01-09T22:46:57.358Z,15.43
2023-01-09T22:49:59.633Z,14.60
2023-01-09T22:53:02.345Z,18.55
2023-01-09T22:56:08.298Z,13.60
2023-01-09T22:59:10.810Z,16.73
2023-01-09T23:02:13.239Z,16.08
2023-01-09T23:05:15.896Z,14.00
2023-01-09T23:08:18.294Z,13.13
2023-01-09T23:11:46.073Z,14.30
2023-01-09T23:14:48.741Z,19.25
2023-01-09T23:17:51.521Z,16.20
2023-01-09T23:20:56.540Z,17.37
2023-01-09T23:23:59.126Z,13.05
2023-01-09T23:27:01.709Z,13.23
2023-01-09T23:30:04.660Z,14.50
2023-01-09T23:33:06.788Z,12.52
2023-01-09T23:36:09.656Z,12.90
2023-01-09T23:39:11.902Z,13.98
2023-01-09T23:42:32.986Z,13.00
2023-01-09T23:45:39.066Z,13.05
2023-01-09T23:48:41.912Z,13.30
2023-01-09T23:51:44.619Z,12.07
2023-01-09T23:54:47.063Z,13.07
2023-01-09T23:57:54.392Z,17.80
